Time;durP1;ratioP1;P1;durP2;ratioP2;P2;SDS_P1;SDS_P2;PMS_P1;PMS_P2;Temp;Humidity;BMP_temperature;BMP_pressure;BME280_temperature;BME280_humidity;BME280_pressure;Samples;Min_cycle;Max_cycle;Signal;HPM_P1;HPM_P2
2021/08/30 00:01:17;;;;;;;;;8.50;8.50;;;;;32.51;26.15;100222.22;144183;691;132010;-73
2021/08/30 00:03:51;;;;;;;;;5.25;5.25;;;;;32.63;26.29;100227.91;144157;628;132018;-74
2021/08/30 00:06:25;;;;;;;;;8.25;8.25;;;;;32.65;26.28;100232.09;144158;587;132012;-73
2021/08/30 00:08:59;;;;;;;;;9.00;7.00;;;;;32.47;26.84;100240.78;144159;588;132912;-73
2021/08/30 00:11:33;;;;;;;;;8.00;6.25;;;;;32.46;26.34;100232.81;144183;631;132010;-73
2021/08/30 00:14:07;;;;;;;;;6.75;6.75;;;;;32.34;26.59;100232.53;144161;569;132012;-73
2021/08/30 00:16:41;;;;;;;;;11.50;9.50;;;;;32.36;26.77;100238.59;144179;605;132010;-73
2021/08/30 00:19:15;;;;;;;;;8.25;7.50;;;;;32.48;26.41;100233.44;144154;588;132912;-73
2021/08/30 00:21:49;;;;;;;;;8.00;8.00;;;;;32.30;26.94;100236.66;144170;565;132012;-73
2021/08/30 00:24:24;;;;;;;;;8.75;5.75;;;;;32.32;26.89;100245.47;144173;617;132912;-72
2021/08/30 00:26:59;;;;;;;;;7.00;7.00;;;;;32.01;27.35;100244.78;144181;579;132012;-71
2021/08/30 00:29:33;;;;;;;;;7.75;7.75;;;;;32.17;27.16;100256.44;144155;607;132014;-70
2021/08/30 00:32:07;;;;;;;;;12.00;10.50;;;;;32.22;27.34;100252.09;144154;569;132012;-76
2021/08/30 00:34:41;;;;;;;;;7.00;7.00;;;;;31.47;28.42;100259.62;144154;606;132913;-73
2021/08/30 00:37:15;;;;;;;;;9.50;8.50;;;;;31.86;28.14;100261.13;144175;592;132012;-73
2021/08/30 00:39:50;;;;;;;;;6.75;6.00;;;;;31.70;28.37;100258.69;144155;633;132912;-74
2021/08/30 00:42:24;;;;;;;;;7.50;6.50;;;;;32.28;27.33;100246.91;144184;573;131021;-72
2021/08/30 00:45:00;;;;;;;;;7.75;7.00;;;;;32.30;26.75;100251.09;144155;598;132012;-70
2021/08/30 00:47:34;;;;;;;;;9.75;9.75;;;;;32.31;26.66;100250.03;144169;662;132012;-74
2021/08/30 00:50:14;;;;;;;;;10.75;8.50;;;;;32.36;26.68;100244.88;144165;653;132013;-73
2021/08/30 00:52:48;;;;;;;;;10.25;10.25;;;;;32.48;26.70;100242.47;144178;606;132010;-70
2021/08/30 00:55:22;;;;;;;;;8.75;8.75;;;;;32.20;27.18;100246.00;144162;586;132012;-70
2021/08/30 00:57:58;;;;;;;;;10.00;9.00;;;;;32.53;26.74;100244.56;144157;593;132012;-69
2021/08/30 01:00:32;;;;;;;;;7.00;7.00;;;;;32.66;26.33;100243.84;144154;726;132012;-70
2021/08/30 01:03:06;;;;;;;;;6.50;6.50;;;;;32.81;25.86;100241.03;144179;695;131021;-70
2021/08/30 01:05:44;;;;;;;;;8.00;7.25;;;;;32.75;26.03;100245.34;144158;590;132012;-70
2021/08/30 01:08:57;;;;;;;;;8.00;7.00;;;;;32.66;26.28;100238.41;144178;675;132012;-69
2021/08/30 01:11:36;;;;;;;;;7.50;6.00;;;;;32.62;26.51;100248.00;144152;569;132030;-70
2021/08/30 01:14:14;;;;;;;;;10.25;8.50;;;;;32.12;26.90;100253.41;144178;578;132010;-69
2021/08/30 01:16:49;;;;;;;;;6.00;6.00;;;;;32.27;26.47;100253.38;144170;584;132012;-70
2021/08/30 01:19:37;;;;;;;;;5.75;5.75;;;;;32.30;26.26;100252.97;144178;652;132012;-71
2021/08/30 01:22:20;;;;;;;;;9.75;9.75;;;;;31.99;26.67;100256.88;144161;754;131020;-69
2021/08/30 01:24:54;;;;;;;;;8.00;7.75;;;;;31.41;27.23;100249.53;144164;597;131020;-72
2021/08/30 01:27:33;;;;;;;;;3.25;2.75;;;;;31.91;26.00;100263.25;144161;573;132012;-69
2021/08/30 01:30:11;;;;;;;;;7.25;7.25;;;;;32.02;25.45;100259.19;144179;590;131020;-69
2021/08/30 01:32:53;;;;;;;;;10.00;8.75;;;;;31.94;25.39;100253.87;144159;605;132012;-71
2021/08/30 01:35:33;;;;;;;;;5.00;5.00;;;;;31.91;25.18;100257.00;144181;586;132010;-69
2021/08/30 01:38:09;;;;;;;;;8.75;7.75;;;;;31.92;25.65;100258.66;144153;614;132018;-70
2021/08/30 01:40:43;;;;;;;;;5.00;5.00;;;;;31.89;25.86;100252.59;144179;569;132012;-71
2021/08/30 01:43:19;;;;;;;;;7.75;7.75;;;;;31.92;25.78;100258.66;144166;735;132014;-69
2021/08/30 01:45:54;;;;;;;;;8.00;8.00;;;;;31.81;26.75;100263.59;144180;616;132012;-71
2021/08/30 01:48:28;;;;;;;;;8.25;7.25;;;;;32.21;25.40;100255.00;144154;564;132013;-70
2021/08/30 01:51:04;;;;;;;;;7.25;7.25;;;;;31.93;26.40;100255.75;144159;615;131020;-71
2021/08/30 01:53:38;;;;;;;;;7.00;7.00;;;;;32.03;25.73;100248.13;144161;584;132012;-71
2021/08/30 01:56:12;;;;;;;;;6.00;6.00;;;;;31.97;25.59;100256.22;144175;570;132010;-70
2021/08/30 02:01:40;;;;;;;;;5.50;5.50;;;;;31.60;25.74;100261.69;144180;597;132010;-69
2021/08/30 02:04:14;;;;;;;;;6.50;6.50;;;;;31.50;25.32;100264.69;144157;712;132020;-71
2021/08/30 02:06:48;;;;;;;;;4.00;4.00;;;;;31.43;24.87;100269.19;144177;692;131020;-72
2021/08/30 02:09:24;;;;;;;;;5.75;5.75;;;;;31.33;25.15;100269.50;144167;591;132912;-70
2021/08/30 02:11:58;;;;;;;;;5.75;5.75;;;;;31.42;24.51;100278.34;144178;585;132012;-71
2021/08/30 02:14:32;;;;;;;;;3.75;2.50;;;;;31.35;24.44;100272.84;144151;563;132018;-71
2021/08/30 02:17:12;;;;;;;;;5.75;5.75;;;;;31.08;24.92;100271.66;144163;597;132010;-69
2021/08/30 02:19:52;;;;;;;;;4.75;4.75;;;;;31.37;24.75;100275.38;144157;591;132012;-70
2021/08/30 02:22:37;;;;;;;;;6.00;4.25;;;;;30.92;25.27;100259.12;144175;627;133020;-69
2021/08/30 02:25:22;;;;;;;;;5.00;4.75;;;;;31.14;25.23;100276.34;144158;574;132012;-71
2021/08/30 02:28:02;;;;;;;;;7.00;5.25;;;;;30.24;26.38;100272.66;144175;569;131020;-70
2021/08/30 02:30:40;;;;;;;;;6.00;4.25;;;;;30.71;25.74;100273.41;144153;639;132014;-71
2021/08/30 02:33:16;;;;;;;;;4.00;4.00;;;;;30.16;26.61;100270.03;144178;665;132012;-69
2021/08/30 02:35:51;;;;;;;;;7.75;7.00;;;;;31.14;25.42;100276.34;144171;575;132018;-69
2021/08/30 02:38:26;;;;;;;;;7.50;7.50;;;;;30.62;25.59;100275.38;144181;598;131020;-70
2021/08/30 02:41:00;;;;;;;;;8.00;8.00;;;;;30.15;27.12;100285.41;144159;594;132013;-72
2021/08/30 02:43:38;;;;;;;;;3.25;3.25;;;;;29.79;27.13;100282.44;144157;579;132012;-71
2021/08/30 02:46:12;;;;;;;;;5.75;5.75;;;;;30.26;26.86;100284.13;144155;625;132020;-71
2021/08/30 02:48:47;;;;;;;;;6.00;5.00;;;;;30.69;25.99;100270.06;144179;607;131021;-72
2021/08/30 02:51:22;;;;;;;;;8.75;7.00;;;;;30.59;26.10;100288.44;144162;609;132014;-72
2021/08/30 02:54:01;;;;;;;;;8.50;7.50;;;;;30.82;25.89;100291.91;144177;607;132012;-72
2021/08/30 02:56:36;;;;;;;;;7.25;6.75;;;;;31.14;26.29;100294.47;144157;576;132013;-72
2021/08/30 02:59:10;;;;;;;;;7.50;7.50;;;;;31.13;25.25;100309.91;144182;665;131030;-75
2021/08/30 03:01:46;;;;;;;;;6.50;6.50;;;;;31.51;25.32;100308.94;144169;585;132020;-74
2021/08/30 03:04:21;;;;;;;;;7.00;6.50;;;;;31.69;25.01;100313.97;144177;569;132012;-73
2021/08/30 03:06:56;;;;;;;;;8.75;8.00;;;;;31.75;25.04;100309.62;144163;592;132012;-73
2021/08/30 03:09:30;;;;;;;;;8.75;7.75;;;;;31.52;24.91;100316.00;144163;723;132013;-72
2021/08/30 03:12:07;;;;;;;;;6.00;6.00;;;;;31.39;24.95;100309.41;144162;564;132913;-74
2021/08/30 03:14:46;;;;;;;;;7.25;7.25;;;;;31.30;25.25;100315.13;144180;569;132012;-73
2021/08/30 03:17:22;;;;;;;;;6.50;6.50;;;;;31.29;25.23;100311.59;144159;746;132015;-74
2021/08/30 03:19:58;;;;;;;;;10.00;8.00;;;;;31.42;25.04;100313.59;144176;592;132012;-75
2021/08/30 03:22:34;;;;;;;;;8.50;8.50;;;;;31.14;25.57;100325.16;144159;583;132018;-74
2021/08/30 03:25:14;;;;;;;;;6.00;6.00;;;;;29.99;26.99;100323.41;144180;566;132012;-73
2021/08/30 03:27:51;;;;;;;;;9.25;7.75;;;;;29.36;28.00;100326.09;144165;632;132911;-73
2021/08/30 03:30:27;;;;;;;;;6.50;6.25;;;;;28.89;28.34;100332.31;144176;676;132012;-73
2021/08/30 03:33:04;;;;;;;;;11.00;9.00;;;;;29.12;28.86;100327.84;144151;571;132020;-74
2021/08/30 03:35:39;;;;;;;;;8.75;7.25;;;;;29.29;28.22;100338.63;144164;563;131020;-75
2021/08/30 03:38:14;;;;;;;;;6.00;6.00;;;;;29.11;28.47;100330.72;144158;619;132020;-73
2021/08/30 03:40:49;;;;;;;;;8.25;7.75;;;;;28.65;29.06;100334.88;144176;572;132013;-74
2021/08/30 03:43:24;;;;;;;;;9.50;8.50;;;;;28.98;28.69;100339.34;144159;613;132012;-72
2021/08/30 03:45:59;;;;;;;;;8.00;8.00;;;;;28.66;29.17;100343.81;144180;571;131020;-74
2021/08/30 03:48:34;;;;;;;;;6.00;6.00;;;;;29.56;27.84;100339.22;144157;639;132013;-73
2021/08/30 03:51:09;;;;;;;;;7.25;7.00;;;;;29.61;27.79;100342.19;144175;579;132012;-73
2021/08/30 03:53:45;;;;;;;;;8.25;7.00;;;;;29.88;27.13;100349.88;144175;608;131912;-72
2021/08/30 03:56:20;;;;;;;;;5.50;5.50;;;;;29.46;28.13;100348.38;144186;569;131021;-80
2021/08/30 03:58:54;;;;;;;;;7.00;5.25;;;;;29.55;28.03;100354.56;144163;640;132020;-80
2021/08/30 04:01:29;;;;;;;;;7.00;5.50;;;;;28.98;29.00;100352.84;144159;621;132012;-76
2021/08/30 04:04:08;;;;;;;;;6.00;6.00;;;;;29.75;27.85;100355.00;144159;596;132012;-74
2021/08/30 04:06:42;;;;;;;;;4.25;4.25;;;;;29.92;27.69;100360.34;144181;641;131020;-73
2021/08/30 04:09:20;;;;;;;;;8.25;7.50;;;;;30.30;26.69;100357.72;144167;625;131912;-75
2021/08/30 04:11:54;;;;;;;;;7.25;7.25;;;;;29.78;27.70;100361.91;144182;632;131020;-74
2021/08/30 04:14:29;;;;;;;;;6.00;5.00;;;;;30.01;27.43;100348.44;144162;598;131018;-75
2021/08/30 04:17:03;;;;;;;;;8.00;7.50;;;;;29.31;29.02;100358.22;144178;706;132012;-76
2021/08/30 04:19:37;;;;;;;;;5.75;5.75;;;;;29.75;28.01;100371.22;144164;599;133016;-75
2021/08/30 04:22:10;;;;;;;;;5.50;5.50;;;;;29.91;27.95;100366.75;144179;593;132010;-76
2021/08/30 04:24:44;;;;;;;;;7.75;7.50;;;;;29.31;28.67;100360.94;144159;575;132013;-72
2021/08/30 04:27:18;;;;;;;;;7.75;7.25;;;;;30.22;27.34;100380.25;144160;575;132010;-72
2021/08/30 04:29:52;;;;;;;;;6.75;5.25;;;;;30.39;27.13;100378.31;144156;570;132912;-72
2021/08/30 04:32:31;;;;;;;;;7.75;7.75;;;;;30.60;26.90;100382.22;144175;616;132012;-69
2021/08/30 04:35:07;;;;;;;;;6.25;5.00;;;;;30.98;26.61;100384.94;144158;580;132020;-69
2021/08/30 04:37:41;;;;;;;;;6.00;5.50;;;;;30.45;27.47;100374.06;144177;614;132012;-69
2021/08/30 04:40:16;;;;;;;;;5.25;5.25;;;;;30.84;26.79;100382.00;144157;572;132014;-70
2021/08/30 04:42:49;;;;;;;;;6.00;6.00;;;;;31.12;26.36;100399.56;144181;569;132010;-71
2021/08/30 04:45:23;;;;;;;;;6.50;6.25;;;;;31.30;26.22;100391.03;144172;576;131482;-71
2021/08/30 04:47:57;;;;;;;;;6.25;6.25;;;;;31.51;26.09;100393.84;144180;594;131021;-71
2021/08/30 04:50:31;;;;;;;;;6.00;6.00;;;;;31.40;26.57;100397.03;144162;587;132912;-73
2021/08/30 04:53:09;;;;;;;;;8.75;7.00;;;;;31.44;26.74;100392.94;144161;624;132012;-70
2021/08/30 04:55:43;;;;;;;;;9.50;8.25;;;;;31.85;25.93;100397.84;144154;595;132014;-70
2021/08/30 04:58:17;;;;;;;;;5.75;5.75;;;;;32.00;25.49;100396.97;144181;572;132012;-72
2021/08/30 05:00:51;;;;;;;;;9.00;8.00;;;;;31.76;26.01;100406.31;144157;581;132912;-72
2021/08/30 05:03:25;;;;;;;;;9.25;9.00;;;;;32.30;25.46;100418.62;144173;644;133012;-72
2021/08/30 05:05:58;;;;;;;;;8.25;8.25;;;;;32.49;25.63;100417.16;144156;565;131912;-73
2021/08/30 05:08:32;;;;;;;;;9.75;9.50;;;;;32.59;25.56;100419.53;144177;631;132010;-69
2021/08/30 05:11:07;;;;;;;;;10.00;9.25;;;;;32.70;25.36;100411.75;144171;634;132014;-69
2021/08/30 05:13:41;;;;;;;;;10.50;9.00;;;;;32.78;25.40;100410.75;144173;679;132012;-69
2021/08/30 05:16:15;;;;;;;;;11.25;11.25;;;;;32.68;25.68;100404.78;144148;582;132014;-70
2021/08/30 05:18:49;;;;;;;;;8.25;8.25;;;;;32.89;25.59;100406.66;144162;612;132010;-70
2021/08/30 05:21:22;;;;;;;;;12.25;11.00;;;;;32.85;25.33;100413.53;144159;581;132912;-70
2021/08/30 05:23:57;;;;;;;;;8.25;7.75;;;;;32.56;25.77;100409.87;144176;590;131023;-71
2021/08/30 05:26:30;;;;;;;;;7.25;7.00;;;;;32.57;25.60;100419.72;144157;564;132912;-71
2021/08/30 05:29:05;;;;;;;;;6.50;6.50;;;;;32.69;25.16;100414.62;144184;642;132010;-71
2021/08/30 05:31:39;;;;;;;;;8.50;7.00;;;;;32.67;25.49;100419.41;144152;773;132913;-73
2021/08/30 05:34:12;;;;;;;;;8.00;8.00;;;;;32.77;25.46;100417.22;144177;599;131020;-69
2021/08/30 05:36:46;;;;;;;;;8.00;6.75;;;;;32.96;25.47;100418.44;144169;593;132014;-69
2021/08/30 05:39:20;;;;;;;;;10.00;8.75;;;;;33.11;25.48;100414.75;144174;579;132011;-70
2021/08/30 05:41:54;;;;;;;;;9.00;9.00;;;;;33.12;25.80;100414.56;144160;597;132012;-69
2021/08/30 05:44:28;;;;;;;;;7.00;7.00;;;;;33.29;25.27;100423.28;144163;600;132012;-69
2021/08/30 05:47:02;;;;;;;;;8.75;7.25;;;;;32.92;24.87;100406.28;144154;597;132014;-69
2021/08/30 05:49:36;;;;;;;;;10.00;9.00;;;;;32.39;25.12;100417.47;144177;592;132012;-74
2021/08/30 05:52:12;;;;;;;;;8.00;7.75;;;;;33.28;24.21;100412.59;144157;598;132912;-70
2021/08/30 05:54:46;;;;;;;;;6.25;6.25;;;;;33.45;24.59;100411.25;144177;586;131021;-70
2021/08/30 05:57:20;;;;;;;;;6.75;6.25;;;;;33.52;24.39;100414.00;144161;600;132912;-69
2021/08/30 05:59:54;;;;;;;;;7.00;6.75;;;;;33.76;24.48;100417.25;144179;648;132010;-71
2021/08/30 06:02:28;;;;;;;;;8.00;8.00;;;;;33.66;24.93;100423.91;144167;615;132913;-71
2021/08/30 06:05:02;;;;;;;;;8.75;7.50;;;;;33.90;24.47;100425.31;144180;626;132010;-70
2021/08/30 06:07:36;;;;;;;;;8.50;8.50;;;;;34.25;24.16;100422.44;144154;600;132012;-70
2021/08/30 06:10:12;;;;;;;;;10.25;8.75;;;;;34.42;24.21;100422.12;144157;605;131020;-73
2021/08/30 06:12:45;;;;;;;;;9.00;7.75;;;;;34.39;24.04;100428.81;144161;590;131912;-73
2021/08/30 06:15:19;;;;;;;;;9.25;8.00;;;;;34.47;24.26;100425.03;144180;569;131021;-71
2021/08/30 06:17:53;;;;;;;;;8.00;7.25;;;;;34.20;23.67;100429.56;144156;583;132017;-72
2021/08/30 06:20:27;;;;;;;;;6.50;5.75;;;;;34.36;23.41;100418.31;144177;596;132012;-71
2021/08/30 06:23:01;;;;;;;;;9.50;8.75;;;;;34.63;23.27;100422.97;144159;627;132013;-73
2021/08/30 06:25:35;;;;;;;;;4.00;4.00;;;;;34.95;22.92;100420.47;144176;584;132012;-74
2021/08/30 06:28:09;;;;;;;;;8.50;7.00;;;;;34.98;22.96;100414.59;144171;577;132020;-71
2021/08/30 06:30:43;;;;;;;;;9.50;8.50;;;;;35.39;22.59;100429.87;144176;565;132010;-70
2021/08/30 06:33:16;;;;;;;;;7.25;7.25;;;;;35.45;22.34;100429.03;144158;592;132012;-68
2021/08/30 06:35:51;;;;;;;;;7.25;7.25;;;;;35.78;22.11;100427.25;144160;579;132010;-68
2021/08/30 06:38:24;;;;;;;;;8.50;8.50;;;;;35.80;22.36;100428.69;144163;589;131913;-68
2021/08/30 06:40:58;;;;;;;;;6.75;6.75;;;;;35.94;22.05;100421.31;144180;600;132010;-68
2021/08/30 06:43:32;;;;;;;;;7.75;7.75;;;;;35.75;21.90;100426.59;144153;593;132912;-69
2021/08/30 06:46:06;;;;;;;;;5.25;5.25;;;;;35.70;22.12;100423.69;144181;566;131021;-68
2021/08/30 06:48:40;;;;;;;;;7.00;7.00;;;;;35.86;22.15;100427.03;144159;622;132912;-68
2021/08/30 06:51:17;;;;;;;;;8.00;8.00;;;;;36.11;21.77;100429.81;144177;603;132013;-68
2021/08/30 06:53:51;;;;;;;;;8.25;6.75;;;;;36.31;21.77;100434.34;144173;617;131912;-69
2021/08/30 06:56:28;;;;;;;;;8.50;7.75;;;;;36.47;21.48;100438.44;144176;573;132012;-69
2021/08/30 06:59:02;;;;;;;;;6.75;6.75;;;;;36.48;21.19;100445.59;144161;616;132012;-68
2021/08/30 07:01:35;;;;;;;;;6.25;6.25;;;;;36.26;21.82;100444.00;144163;581;131021;-68
2021/08/30 07:04:09;;;;;;;;;7.50;7.50;;;;;36.71;21.39;100445.00;144156;640;132912;-68
2021/08/30 07:06:43;;;;;;;;;7.25;7.25;;;;;36.78;20.94;100448.53;144173;574;132012;-68
2021/08/30 07:09:17;;;;;;;;;4.75;4.75;;;;;36.82;20.68;100446.22;144150;670;133020;-67
2021/08/30 07:11:51;;;;;;;;;7.50;7.50;;;;;36.89;19.80;100463.41;144178;707;132010;-68
2021/08/30 07:14:25;;;;;;;;;6.25;6.25;;;;;36.24;19.75;100451.59;144158;667;132020;-68
2021/08/30 07:16:59;;;;;;;;;5.50;4.75;;;;;36.63;19.10;100458.97;144181;621;132012;-69
2021/08/30 07:19:33;;;;;;;;;3.75;3.75;;;;;36.58;18.63;100456.88;144169;578;132012;-69
2021/08/30 07:22:09;;;;;;;;;4.00;4.00;;;;;36.51;18.78;100440.53;144178;634;132012;-69
2021/08/30 07:24:43;;;;;;;;;5.50;5.50;;;;;36.31;18.65;100462.50;144158;619;132912;-69
2021/08/30 07:27:17;;;;;;;;;4.00;4.00;;;;;36.41;18.51;100472.97;144161;600;131020;-68
2021/08/30 07:29:51;;;;;;;;;5.25;4.25;;;;;36.71;17.91;100469.62;144155;595;132012;-68
2021/08/30 07:32:25;;;;;;;;;5.00;5.00;;;;;35.91;18.05;100469.00;144182;616;132012;-68
2021/08/30 07:34:59;;;;;;;;;5.75;4.50;;;;;35.77;18.25;100472.78;144157;603;132018;-68
2021/08/30 07:37:34;;;;;;;;;6.25;5.00;;;;;36.39;17.41;100475.09;144180;582;132010;-68
2021/08/30 07:40:09;;;;;;;;;7.50;6.00;;;;;36.60;17.45;100476.63;144153;630;132014;-68
2021/08/30 07:42:43;;;;;;;;;6.00;5.50;;;;;36.60;17.46;100482.09;144178;602;132010;-67
2021/08/30 07:45:17;;;;;;;;;7.50;5.50;;;;;36.25;17.83;100469.69;144164;571;132013;-70
2021/08/30 07:47:51;;;;;;;;;7.25;6.00;;;;;35.57;18.68;100472.88;144175;579;132010;-68
2021/08/30 07:50:25;;;;;;;;;4.50;4.50;;;;;36.41;18.16;100475.72;144150;569;132912;-68
2021/08/30 07:52:59;;;;;;;;;10.00;7.50;;;;;36.46;18.13;100483.25;144158;590;132010;-67
2021/08/30 07:55:36;;;;;;;;;3.50;3.50;;;;;36.78;17.88;100478.59;144158;583;132012;-68
2021/08/30 07:58:14;;;;;;;;;5.00;5.00;;;;;36.76;17.82;100481.56;144176;594;131998;-68
2021/08/30 08:00:48;;;;;;;;;4.00;4.00;;;;;37.01;17.49;100482.66;144160;636;132012;-68
2021/08/30 08:03:24;;;;;;;;;5.25;4.00;;;;;37.23;17.22;100494.03;144174;648;132012;-69
2021/08/30 08:05:58;;;;;;;;;7.25;5.75;;;;;37.24;16.99;100477.41;144155;594;132913;-68
2021/08/30 08:08:33;;;;;;;;;9.50;5.25;;;;;36.86;17.35;100483.00;144179;605;131022;-68
2021/08/30 08:11:09;;;;;;;;;4.25;4.25;;;;;37.39;17.08;100495.41;144172;568;132912;-68
2021/08/30 08:13:43;;;;;;;;;5.00;5.00;;;;;37.76;16.46;100496.28;144177;639;132010;-68
2021/08/30 08:16:17;;;;;;;;;4.00;4.00;;;;;37.73;16.48;100495.88;144162;618;132020;-68
2021/08/30 08:18:52;;;;;;;;;5.00;5.00;;;;;38.00;16.02;100484.63;144160;574;132012;-68
2021/08/30 08:21:28;;;;;;;;;5.00;4.75;;;;;37.96;16.25;100488.88;144159;577;131912;-68
2021/08/30 08:24:02;;;;;;;;;4.00;4.00;;;;;37.80;16.28;100482.97;144179;663;132012;-68
2021/08/30 08:26:35;;;;;;;;;6.00;6.00;;;;;38.04;16.07;100485.81;144156;642;132014;-67
2021/08/30 08:29:10;;;;;;;;;7.00;7.00;;;;;37.57;16.42;100481.72;144184;570;131021;-67
2021/08/30 08:31:43;;;;;;;;;4.75;4.75;;;;;37.39;16.88;100490.75;144163;579;132912;-68
2021/08/30 08:34:18;;;;;;;;;4.50;4.50;;;;;37.83;16.28;100484.41;144181;632;131021;-68
2021/08/30 08:36:51;;;;;;;;;6.25;6.25;;;;;37.79;16.84;100496.91;144167;595;132014;-69
2021/08/30 08:39:25;;;;;;;;;3.50;3.50;;;;;37.84;16.57;100503.34;144176;605;132010;-68
2021/08/30 08:42:03;;;;;;;;;6.00;6.00;;;;;38.05;16.00;100498.47;144156;570;132013;-68
2021/08/30 08:44:39;;;;;;;;;6.00;6.00;;;;;38.23;15.88;100498.44;144165;595;132010;-68
2021/08/30 08:47:13;;;;;;;;;4.50;4.50;;;;;37.72;16.52;100505.16;144156;684;132012;-68
2021/08/30 08:49:51;;;;;;;;;5.75;5.75;;;;;37.22;16.85;100497.84;144175;665;132020;-68
2021/08/30 08:52:26;;;;;;;;;7.25;7.25;;;;;37.48;16.98;100502.22;144158;626;132909;-68
2021/08/30 08:55:01;;;;;;;;;5.50;5.50;;;;;38.07;16.14;100510.00;144177;581;132012;-69
2021/08/30 08:57:35;;;;;;;;;6.50;6.50;;;;;38.18;16.20;100495.56;144164;588;132012;-69
2021/08/30 09:00:12;;;;;;;;;4.50;4.50;;;;;38.04;16.48;100500.38;144180;573;131031;-68
2021/08/30 09:02:46;;;;;;;;;7.50;6.50;;;;;38.35;15.99;100493.03;144165;592;132912;-68
2021/08/30 09:05:33;;;;;;;;;8.25;7.50;;;;;38.52;16.25;100504.19;144181;617;132020;-69
2021/08/30 09:08:08;;;;;;;;;5.50;5.50;;;;;38.65;16.15;100502.31;144154;648;132912;-69
2021/08/30 09:10:48;;;;;;;;;5.00;5.00;;;;;38.65;16.07;100505.03;144164;593;132010;-68
2021/08/30 09:13:33;;;;;;;;;5.50;5.50;;;;;38.51;16.10;100505.25;144156;669;132913;-69
2021/08/30 09:16:07;;;;;;;;;6.50;6.50;;;;;38.50;16.67;100500.00;144178;611;132023;-70
2021/08/30 09:18:41;;;;;;;;;5.75;5.75;;;;;38.91;15.93;100501.06;144157;584;132912;-69
2021/08/30 09:21:16;;;;;;;;;5.25;5.00;;;;;38.42;15.70;100498.41;144180;618;132010;-68
2021/08/30 09:23:51;;;;;;;;;3.25;3.25;;;;;37.59;16.82;100489.69;144161;579;132912;-68
2021/08/30 09:26:26;;;;;;;;;5.00;5.00;;;;;38.08;16.69;100498.00;144178;636;132011;-68
2021/08/30 09:28:59;;;;;;;;;4.00;4.00;;;;;38.48;15.65;100491.16;144166;566;132019;-68
2021/08/30 09:31:33;;;;;;;;;5.00;5.00;;;;;38.77;15.55;100494.97;144178;658;132008;-66
2021/08/30 09:34:07;;;;;;;;;6.25;5.00;;;;;38.98;16.03;100496.28;144155;583;132015;-67
2021/08/30 09:36:57;;;;;;;;;5.00;5.00;;;;;38.59;15.84;100491.19;144164;595;132010;-67
2021/08/30 09:39:33;;;;;;;;;4.75;4.00;;;;;39.39;15.62;100493.72;144158;622;132914;-69
2021/08/30 09:42:10;;;;;;;;;6.25;6.25;;;;;39.32;15.20;100491.09;144177;614;132012;-69
2021/08/30 09:44:44;;;;;;;;;2.25;2.00;;;;;37.74;16.05;100489.31;144159;627;132915;-69
2021/08/30 09:47:21;;;;;;;;;6.75;6.75;;;;;38.70;15.78;100489.59;144176;608;132012;-68
2021/08/30 09:49:56;;;;;;;;;7.00;6.00;;;;;38.31;16.13;100474.53;144156;758;132016;-72
2021/08/30 09:52:30;;;;;;;;;6.25;6.25;;;;;39.14;15.30;100482.94;144178;571;131020;-67
2021/08/30 09:55:04;;;;;;;;;6.00;6.00;;;;;39.40;14.95;100481.66;144175;602;131914;-68
2021/08/30 09:57:40;;;;;;;;;7.25;6.00;;;;;39.34;14.67;100483.47;144178;573;132010;-68
2021/08/30 10:00:16;;;;;;;;;6.50;6.50;;;;;38.45;15.20;100473.25;144155;564;132014;-68
2021/08/30 10:03:04;;;;;;;;;4.50;4.50;;;;;39.47;14.02;100474.13;144165;598;132010;-69
2021/08/30 10:05:41;;;;;;;;;4.25;4.25;;;;;39.32;14.51;100476.53;144153;575;132915;-68
2021/08/30 10:08:17;;;;;;;;;4.00;4.00;;;;;39.39;14.21;100469.00;144177;583;132010;-69
2021/08/30 10:10:53;;;;;;;;;1.50;1.50;;;;;39.70;13.99;100467.78;144159;622;132012;-69
2021/08/30 10:13:28;;;;;;;;;5.75;5.25;;;;;39.96;13.92;100460.06;144180;603;132010;-68
2021/08/30 10:16:02;;;;;;;;;5.75;5.50;;;;;39.71;13.70;100458.47;144158;615;132012;-69
2021/08/30 10:18:36;;;;;;;;;3.50;3.00;;;;;40.24;13.13;100461.16;144177;581;132010;-68
2021/08/30 10:21:20;;;;;;;;;6.50;5.00;;;;;40.15;13.18;100455.25;144168;576;132014;-68
2021/08/30 10:23:55;;;;;;;;;4.00;4.00;;;;;40.25;12.32;100460.09;144177;575;132010;-67
2021/08/30 10:26:43;;;;;;;;;5.50;3.75;;;;;39.36;12.77;100458.50;144160;613;132012;-69
2021/08/30 10:29:18;;;;;;;;;3.00;3.00;;;;;39.75;12.04;100453.31;144165;584;131022;-68
2021/08/30 10:31:54;;;;;;;;;6.00;3.00;;;;;38.79;13.18;100465.38;144158;636;132914;-68
2021/08/30 10:34:39;;;;;;;;;3.00;3.00;;;;;39.52;12.70;100456.91;144179;566;131021;-68
2021/08/30 10:37:22;;;;;;;;;4.00;4.00;;;;;38.88;12.15;100457.66;144165;564;131016;-68
2021/08/30 10:39:56;;;;;;;;;5.75;5.75;;;;;40.03;11.99;100454.44;144182;600;132010;-70
2021/08/30 10:42:30;;;;;;;;;2.25;2.25;;;;;40.13;11.72;100449.12;144156;569;132018;-70
2021/08/30 10:45:09;;;;;;;;;3.50;3.25;;;;;40.14;11.76;100444.50;144176;606;132010;-70
2021/08/30 10:47:43;;;;;;;;;3.00;3.00;;;;;40.60;11.31;100451.66;144174;704;132012;-70
2021/08/30 10:50:24;;;;;;;;;2.25;2.25;;;;;40.55;11.53;100442.50;144180;577;132010;-71
2021/08/30 10:53:07;;;;;;;;;3.25;3.25;;;;;40.53;11.50;100450.16;144158;624;132012;-71
2021/08/30 10:55:44;;;;;;;;;0.33;0.33;;;;;40.85;11.81;100444.09;144163;691;132011;-70
2021/08/30 10:58:39;;;;;;;;;3.50;2.75;;;;;40.80;11.43;100449.50;144159;590;132012;-70
2021/08/30 11:01:18;;;;;;;;;3.00;3.00;;;;;40.68;11.03;100452.31;144181;564;132010;-71
2021/08/30 11:04:12;;;;;;;;;2.00;2.00;;;;;40.87;10.97;100448.22;144161;574;131915;-72
2021/08/30 11:06:47;;;;;;;;;2.00;2.00;;;;;41.06;10.84;100443.31;144176;579;132012;-70
2021/08/30 11:09:22;;;;;;;;;2.50;2.50;;;;;40.69;10.84;100451.25;144157;639;132012;-71
2021/08/30 11:11:56;;;;;;;;;3.25;3.25;;;;;40.49;11.08;100451.69;144175;614;132010;-70
2021/08/30 11:14:30;;;;;;;;;2.25;2.25;;;;;40.20;11.69;100436.06;144172;587;131914;-70
2021/08/30 11:17:04;;;;;;;;;4.33;4.00;;;;;40.02;11.68;100445.34;144175;609;132012;-71
2021/08/30 11:19:37;;;;;;;;;3.75;3.75;;;;;40.65;13.47;100439.09;144159;652;132013;-71
2021/08/30 11:22:12;;;;;;;;;6.25;6.25;;;;;38.55;17.63;100442.53;144161;596;132012;-71
2021/08/30 11:24:47;;;;;;;;;8.75;6.25;;;;;39.10;16.59;100438.69;144154;700;132014;-70
2021/08/30 11:27:33;;;;;;;;;5.00;5.00;;;;;39.50;16.73;100426.13;144180;607;132010;-72
2021/08/30 11:30:13;;;;;;;;;4.00;4.00;;;;;39.51;17.31;100431.38;144157;569;132914;-71
2021/08/30 11:32:47;;;;;;;;;4.75;4.75;;;;;39.60;16.96;100427.22;144176;719;132012;-71
2021/08/30 11:35:22;;;;;;;;;5.75;5.75;;;;;37.75;18.66;100425.28;144156;575;132915;-70
2021/08/30 11:38:00;;;;;;;;;5.75;4.25;;;;;37.15;19.15;100426.75;144176;563;132012;-70
2021/08/30 11:40:34;;;;;;;;;4.50;4.00;;;;;37.28;18.87;100417.59;144170;599;131914;-71
2021/08/30 11:43:19;;;;;;;;;4.00;4.00;;;;;36.33;18.59;100407.66;144179;563;132012;-70
2021/08/30 11:45:53;;;;;;;;;5.25;5.00;;;;;36.84;18.18;100423.06;144152;600;132016;-71
2021/08/30 11:48:27;;;;;;;;;3.00;3.00;;;;;37.40;18.60;100415.78;144155;575;132012;-71
2021/08/30 11:51:07;;;;;;;;;5.00;5.00;;;;;37.50;18.42;100420.72;144155;569;132012;-72
2021/08/30 11:53:49;;;;;;;;;6.50;6.50;;;;;36.56;18.99;100415.25;144177;642;132012;-71
2021/08/30 11:56:26;;;;;;;;;9.25;5.50;;;;;36.30;19.08;100413.53;144154;586;132013;-70
2021/08/30 11:59:03;;;;;;;;;5.50;5.25;;;;;36.96;19.71;100416.84;144177;621;131020;-70